sensor_id;sensor_type;location;lat;lon;timestamp;P1;durP1;ratioP1;P2;durP2;ratioP2
22983;SDS011;11658;48.908;9.140;2023-03-29T03:02:43;2.60;;;2.10;;
22983;SDS011;11658;48.908;9.140;2023-03-29T03:05:08;3.97;;;2.10;;
22983;SDS011;11658;48.908;9.140;2023-03-29T03:07:34;3.03;;;1.93;;
22983;SDS011;11658;48.908;9.140;2023-03-29T03:09:59;2.43;;;2.23;;
22983;SDS011;11658;48.908;9.140;2023-03-29T03:12:25;3.20;;;2.30;;
22983;SDS011;11658;48.908;9.140;2023-03-29T03:14:51;3.23;;;2.30;;
22983;SDS011;11658;48.908;9.140;2023-03-29T03:17:16;3.63;;;2.00;;
22983;SDS011;11658;48.908;9.140;2023-03-29T03:19:46;3.20;;;2.10;;
22983;SDS011;11658;48.908;9.140;2023-03-29T03:22:13;2.30;;;2.00;;
22983;SDS011;11658;48.908;9.140;2023-03-29T03:24:39;2.73;;;2.07;;
22983;SDS011;11658;48.908;9.140;2023-03-29T03:27:04;2.93;;;2.00;;
22983;SDS011;11658;48.908;9.140;2023-03-29T03:29:30;2.33;;;2.10;;
22983;SDS011;11658;48.908;9.140;2023-03-29T03:31:55;2.30;;;2.10;;
22983;SDS011;11658;48.908;9.140;2023-03-29T03:34:21;2.80;;;2.07;;
22983;SDS011;11658;48.908;9.140;2023-03-29T03:36:47;2.20;;;2.00;;
22983;SDS011;11658;48.908;9.140;2023-03-29T03:39:12;2.50;;;2.00;;
22983;SDS011;11658;48.908;9.140;2023-03-29T03:41:38;3.40;;;1.87;;
22983;SDS011;11658;48.908;9.140;2023-03-29T03:44:04;2.23;;;2.00;;
22983;SDS011;11658;48.908;9.140;2023-03-29T03:46:30;2.43;;;2.07;;
22983;SDS011;11658;48.908;9.140;2023-03-29T03:48:56;2.43;;;2.00;;
22983;SDS011;11658;48.908;9.140;2023-03-29T03:51:23;2.03;;;1.57;;
22983;SDS011;11658;48.908;9.140;2023-03-29T03:53:49;2.40;;;2.00;;
22983;SDS011;11658;48.908;9.140;2023-03-29T03:56:15;5.30;;;2.40;;
22983;SDS011;11658;48.908;9.140;2023-03-29T03:58:41;2.10;;;1.90;;
22983;SDS011;11658;48.908;9.140;2023-03-29T04:01:07;2.73;;;2.00;;
22983;SDS011;11658;48.908;9.140;2023-03-29T04:03:34;2.30;;;1.87;;
22983;SDS011;11658;48.908;9.140;2023-03-29T04:06:00;1.90;;;1.70;;
22983;SDS011;11658;48.908;9.140;2023-03-29T04:08:27;3.60;;;1.70;;
22983;SDS011;11658;48.908;9.140;2023-03-29T04:10:53;3.13;;;1.83;;
22983;SDS011;11658;48.908;9.140;2023-03-29T04:13:20;2.70;;;1.90;;
22983;SDS011;11658;48.908;9.140;2023-03-29T04:15:46;2.53;;;1.90;;
22983;SDS011;11658;48.908;9.140;2023-03-29T04:18:14;1.87;;;1.67;;
22983;SDS011;11658;48.908;9.140;2023-03-29T04:20:40;2.30;;;1.67;;
22983;SDS011;11658;48.908;9.140;2023-03-29T04:23:06;1.80;;;1.70;;
22983;SDS011;11658;48.908;9.140;2023-03-29T04:25:31;2.00;;;1.60;;
22983;SDS011;11658;48.908;9.140;2023-03-29T04:27:57;2.40;;;2.03;;
22983;SDS011;11658;48.908;9.140;2023-03-29T04:30:23;2.10;;;1.80;;
22983;SDS011;11658;48.908;9.140;2023-03-29T04:32:48;2.83;;;1.83;;
22983;SDS011;11658;48.908;9.140;2023-03-29T04:35:14;2.33;;;1.70;;
22983;SDS011;11658;48.908;9.140;2023-03-29T04:37:40;2.60;;;1.77;;
22983;SDS011;11658;48.908;9.140;2023-03-29T04:40:06;2.17;;;1.60;;
22983;SDS011;11658;48.908;9.140;2023-03-29T04:42:38;2.73;;;2.10;;
22983;SDS011;11658;48.908;9.140;2023-03-29T04:45:06;2.00;;;1.60;;
22983;SDS011;11658;48.908;9.140;2023-03-29T04:47:32;2.23;;;1.60;;
22983;SDS011;11658;48.908;9.140;2023-03-29T04:50:00;1.73;;;1.63;;
22983;SDS011;11658;48.908;9.140;2023-03-29T04:52:26;2.93;;;1.80;;
22983;SDS011;11658;48.908;9.140;2023-03-29T04:54:51;3.03;;;2.10;;
22983;SDS011;11658;48.908;9.140;2023-03-29T04:57:17;1.83;;;1.73;;
22983;SDS011;11658;48.908;9.140;2023-03-29T04:59:42;2.17;;;1.70;;
22983;SDS011;11658;48.908;9.140;2023-03-29T05:02:08;3.40;;;2.03;;
22983;SDS011;11658;48.908;9.140;2023-03-29T05:04:33;2.37;;;1.70;;
22983;SDS011;11658;48.908;9.140;2023-03-29T05:07:00;4.10;;;1.73;;
22983;SDS011;11658;48.908;9.140;2023-03-29T05:09:26;3.03;;;1.70;;
22983;SDS011;11658;48.908;9.140;2023-03-29T05:11:53;2.73;;;1.70;;
22983;SDS011;11658;48.908;9.140;2023-03-29T05:14:18;4.20;;;1.73;;
22983;SDS011;11658;48.908;9.140;2023-03-29T05:16:44;2.63;;;1.70;;
22983;SDS011;11658;48.908;9.140;2023-03-29T05:19:10;6.73;;;2.00;;
22983;SDS011;11658;48.908;9.140;2023-03-29T05:21:37;3.10;;;1.80;;
22983;SDS011;11658;48.908;9.140;2023-03-29T05:24:02;4.50;;;1.90;;
22983;SDS011;11658;48.908;9.140;2023-03-29T05:26:28;2.83;;;1.90;;
22983;SDS011;11658;48.908;9.140;2023-03-29T05:28:54;2.77;;;1.80;;
22983;SDS011;11658;48.908;9.140;2023-03-29T05:31:20;2.57;;;1.93;;
22983;SDS011;11658;48.908;9.140;2023-03-29T05:33:46;2.40;;;2.00;;
22983;SDS011;11658;48.908;9.140;2023-03-29T05:36:13;1.70;;;1.60;;
22983;SDS011;11658;48.908;9.140;2023-03-29T05:38:40;2.53;;;1.90;;
22983;SDS011;11658;48.908;9.140;2023-03-29T05:41:09;2.47;;;1.80;;
22983;SDS011;11658;48.908;9.140;2023-03-29T05:43:35;3.13;;;2.00;;
22983;SDS011;11658;48.908;9.140;2023-03-29T05:46:01;3.30;;;1.93;;
22983;SDS011;11658;48.908;9.140;2023-03-29T05:48:27;3.20;;;1.87;;
22983;SDS011;11658;48.908;9.140;2023-03-29T05:50:53;2.33;;;1.97;;
22983;SDS011;11658;48.908;9.140;2023-03-29T05:53:20;5.17;;;2.50;;
22983;SDS011;11658;48.908;9.140;2023-03-29T05:55:47;1.80;;;1.70;;
22983;SDS011;11658;48.908;9.140;2023-03-29T05:58:12;2.80;;;1.50;;
22983;SDS011;11658;48.908;9.140;2023-03-29T06:00:39;2.27;;;1.60;;
22983;SDS011;11658;48.908;9.140;2023-03-29T06:03:05;1.60;;;1.50;;
22983;SDS011;11658;48.908;9.140;2023-03-29T06:05:32;3.13;;;1.50;;
22983;SDS011;11658;48.908;9.140;2023-03-29T06:08:01;1.97;;;1.37;;
22983;SDS011;11658;48.908;9.140;2023-03-29T06:10:27;2.87;;;1.97;;
22983;SDS011;11658;48.908;9.140;2023-03-29T06:12:52;3.27;;;2.30;;
22983;SDS011;11658;48.908;9.140;2023-03-29T06:15:19;4.57;;;2.70;;
22983;SDS011;11658;48.908;9.140;2023-03-29T06:17:45;6.07;;;2.47;;
22983;SDS011;11658;48.908;9.140;2023-03-29T06:20:11;4.33;;;2.87;;
22983;SDS011;11658;48.908;9.140;2023-03-29T06:22:37;3.93;;;2.30;;
22983;SDS011;11658;48.908;9.140;2023-03-29T06:25:04;6.53;;;2.77;;
22983;SDS011;11658;48.908;9.140;2023-03-29T06:27:30;4.97;;;2.90;;
22983;SDS011;11658;48.908;9.140;2023-03-29T06:29:57;6.53;;;2.93;;
22983;SDS011;11658;48.908;9.140;2023-03-29T06:32:23;8.70;;;3.07;;
22983;SDS011;11658;48.908;9.140;2023-03-29T06:34:49;9.83;;;3.27;;
22983;SDS011;11658;48.908;9.140;2023-03-29T06:37:15;5.10;;;2.77;;
22983;SDS011;11658;48.908;9.140;2023-03-29T06:39:41;3.27;;;2.23;;
22983;SDS011;11658;48.908;9.140;2023-03-29T06:42:07;3.40;;;2.10;;
22983;SDS011;11658;48.908;9.140;2023-03-29T06:44:33;5.10;;;2.23;;
22983;SDS011;11658;48.908;9.140;2023-03-29T06:46:59;3.30;;;2.80;;
22983;SDS011;11658;48.908;9.140;2023-03-29T06:49:25;3.43;;;2.40;;
22983;SDS011;11658;48.908;9.140;2023-03-29T06:51:51;5.93;;;2.77;;
22983;SDS011;11658;48.908;9.140;2023-03-29T06:54:17;4.67;;;2.40;;
22983;SDS011;11658;48.908;9.140;2023-03-29T06:56:43;6.30;;;2.43;;
22983;SDS011;11658;48.908;9.140;2023-03-29T06:59:11;8.50;;;2.63;;
22983;SDS011;11658;48.908;9.140;2023-03-29T07:01:37;4.40;;;2.40;;
22983;SDS011;11658;48.908;9.140;2023-03-29T07:04:03;5.77;;;2.37;;
22983;SDS011;11658;48.908;9.140;2023-03-29T07:06:32;6.00;;;2.60;;
22983;SDS011;11658;48.908;9.140;2023-03-29T07:08:58;5.70;;;2.70;;
22983;SDS011;11658;48.908;9.140;2023-03-29T07:11:25;4.27;;;2.40;;
22983;SDS011;11658;48.908;9.140;2023-03-29T07:13:51;7.77;;;3.70;;
22983;SDS011;11658;48.908;9.140;2023-03-29T07:16:17;4.77;;;2.70;;
22983;SDS011;11658;48.908;9.140;2023-03-29T07:18:43;4.43;;;2.47;;
22983;SDS011;11658;48.908;9.140;2023-03-29T07:21:10;4.90;;;2.60;;
22983;SDS011;11658;48.908;9.140;2023-03-29T07:23:37;4.47;;;2.13;;
22983;SDS011;11658;48.908;9.140;2023-03-29T07:26:03;5.93;;;2.70;;
22983;SDS011;11658;48.908;9.140;2023-03-29T07:28:31;5.37;;;2.47;;
22983;SDS011;11658;48.908;9.140;2023-03-29T07:31:04;6.93;;;2.43;;
22983;SDS011;11658;48.908;9.140;2023-03-29T07:33:35;3.40;;;2.33;;
22983;SDS011;11658;48.908;9.140;2023-03-29T07:36:01;3.50;;;2.27;;
22983;SDS011;11658;48.908;9.140;2023-03-29T07:38:27;6.37;;;2.70;;
22983;SDS011;11658;48.908;9.140;2023-03-29T07:40:53;3.90;;;2.50;;
22983;SDS011;11658;48.908;9.140;2023-03-29T07:43:20;3.77;;;2.77;;
22983;SDS011;11658;48.908;9.140;2023-03-29T07:45:45;5.97;;;3.20;;
22983;SDS011;11658;48.908;9.140;2023-03-29T07:48:12;5.47;;;3.10;;
22983;SDS011;11658;48.908;9.140;2023-03-29T07:50:38;4.77;;;2.97;;
22983;SDS011;11658;48.908;9.140;2023-03-29T07:53:04;4.07;;;3.00;;
22983;SDS011;11658;48.908;9.140;2023-03-29T07:55:29;5.83;;;2.57;;
22983;SDS011;11658;48.908;9.140;2023-03-29T07:57:55;2.67;;;2.13;;
22983;SDS011;11658;48.908;9.140;2023-03-29T08:00:21;5.07;;;2.33;;
22983;SDS011;11658;48.908;9.140;2023-03-29T08:02:49;3.10;;;2.10;;
22983;SDS011;11658;48.908;9.140;2023-03-29T08:05:16;2.33;;;1.70;;
22983;SDS011;11658;48.908;9.140;2023-03-29T08:07:44;2.57;;;1.80;;
22983;SDS011;11658;48.908;9.140;2023-03-29T08:10:11;2.07;;;1.80;;
22983;SDS011;11658;48.908;9.140;2023-03-29T08:12:39;3.93;;;2.20;;
22983;SDS011;11658;48.908;9.140;2023-03-29T08:15:06;6.10;;;2.10;;
22983;SDS011;11658;48.908;9.140;2023-03-29T08:17:32;4.87;;;1.73;;
22983;SDS011;11658;48.908;9.140;2023-03-29T08:20:00;2.77;;;1.90;;
22983;SDS011;11658;48.908;9.140;2023-03-29T08:22:26;3.23;;;1.80;;
22983;SDS011;11658;48.908;9.140;2023-03-29T08:24:52;2.53;;;2.13;;
22983;SDS011;11658;48.908;9.140;2023-03-29T08:27:18;2.93;;;2.07;;
22983;SDS011;11658;48.908;9.140;2023-03-29T08:29:44;2.50;;;1.90;;
22983;SDS011;11658;48.908;9.140;2023-03-29T08:32:10;3.53;;;1.93;;
22983;SDS011;11658;48.908;9.140;2023-03-29T08:34:36;3.60;;;2.00;;
22983;SDS011;11658;48.908;9.140;2023-03-29T08:37:02;2.00;;;1.60;;
22983;SDS011;11658;48.908;9.140;2023-03-29T08:39:29;2.97;;;1.83;;
22983;SDS011;11658;48.908;9.140;2023-03-29T08:41:59;2.43;;;1.50;;
22983;SDS011;11658;48.908;9.140;2023-03-29T08:49:49;1.83;;;1.50;;
22983;SDS011;11658;48.908;9.140;2023-03-29T08:52:20;2.70;;;1.70;;
22983;SDS011;11658;48.908;9.140;2023-03-29T08:54:57;2.83;;;1.70;;
22983;SDS011;11658;48.908;9.140;2023-03-29T08:57:26;3.47;;;1.53;;
22983;SDS011;11658;48.908;9.140;2023-03-29T08:59:56;2.37;;;1.67;;
22983;SDS011;11658;48.908;9.140;2023-03-29T09:02:26;2.17;;;1.40;;
22983;SDS011;11658;48.908;9.140;2023-03-29T09:04:56;3.60;;;1.80;;
22983;SDS011;11658;48.908;9.140;2023-03-29T09:07:42;1.90;;;1.70;;
22983;SDS011;11658;48.908;9.140;2023-03-29T09:10:11;2.13;;;1.43;;
22983;SDS011;11658;48.908;9.140;2023-03-29T09:15:27;4.07;;;1.83;;
22983;SDS011;11658;48.908;9.140;2023-03-29T09:18:04;1.50;;;1.40;;
22983;SDS011;11658;48.908;9.140;2023-03-29T09:21:00;3.73;;;1.47;;
22983;SDS011;11658;48.908;9.140;2023-03-29T09:26:51;4.27;;;1.90;;
22983;SDS011;11658;48.908;9.140;2023-03-29T09:29:39;4.03;;;1.70;;
22983;SDS011;11658;48.908;9.140;2023-03-29T09:32:28;3.87;;;1.90;;
22983;SDS011;11658;48.908;9.140;2023-03-29T09:38:01;2.50;;;1.70;;
22983;SDS011;11658;48.908;9.140;2023-03-29T09:40:30;2.30;;;1.63;;
22983;SDS011;11658;48.908;9.140;2023-03-29T09:43:02;5.50;;;2.07;;
22983;SDS011;11658;48.908;9.140;2023-03-29T09:45:31;3.37;;;1.60;;
22983;SDS011;11658;48.908;9.140;2023-03-29T09:50:36;3.70;;;1.70;;
22983;SDS011;11658;48.908;9.140;2023-03-29T09:53:06;5.13;;;1.87;;
22983;SDS011;11658;48.908;9.140;2023-03-29T09:55:33;3.27;;;1.77;;
22983;SDS011;11658;48.908;9.140;2023-03-29T09:58:01;5.50;;;1.87;;
22983;SDS011;11658;48.908;9.140;2023-03-29T10:00:39;2.60;;;1.80;;
22983;SDS011;11658;48.908;9.140;2023-03-29T10:03:05;4.80;;;1.93;;
22983;SDS011;11658;48.908;9.140;2023-03-29T10:05:31;2.63;;;1.80;;
22983;SDS011;11658;48.908;9.140;2023-03-29T10:08:01;4.87;;;1.73;;
22983;SDS011;11658;48.908;9.140;2023-03-29T10:10:38;4.83;;;2.30;;
22983;SDS011;11658;48.908;9.140;2023-03-29T10:13:05;3.17;;;1.80;;
22983;SDS011;11658;48.908;9.140;2023-03-29T10:15:35;2.90;;;1.80;;
22983;SDS011;11658;48.908;9.140;2023-03-29T10:18:11;2.70;;;1.57;;
22983;SDS011;11658;48.908;9.140;2023-03-29T10:20:38;3.30;;;1.57;;
22983;SDS011;11658;48.908;9.140;2023-03-29T10:23:05;2.87;;;1.70;;
22983;SDS011;11658;48.908;9.140;2023-03-29T10:25:33;4.07;;;2.10;;
22983;SDS011;11658;48.908;9.140;2023-03-29T10:28:11;3.33;;;1.87;;
22983;SDS011;11658;48.908;9.140;2023-03-29T10:30:41;1.90;;;1.50;;
22983;SDS011;11658;48.908;9.140;2023-03-29T10:33:17;2.90;;;1.83;;
22983;SDS011;11658;48.908;9.140;2023-03-29T10:35:45;3.00;;;1.90;;
22983;SDS011;11658;48.908;9.140;2023-03-29T10:38:15;4.93;;;1.80;;
22983;SDS011;11658;48.908;9.140;2023-03-29T10:40:44;3.13;;;1.83;;
22983;SDS011;11658;48.908;9.140;2023-03-29T10:45:46;2.87;;;1.97;;
22983;SDS011;11658;48.908;9.140;2023-03-29T10:48:13;5.80;;;1.80;;
22983;SDS011;11658;48.908;9.140;2023-03-29T10:50:40;2.10;;;1.60;;
22983;SDS011;11658;48.908;9.140;2023-03-29T10:53:25;5.60;;;1.80;;
22983;SDS011;11658;48.908;9.140;2023-03-29T10:55:57;4.07;;;1.70;;
22983;SDS011;11658;48.908;9.140;2023-03-29T11:01:24;2.80;;;1.60;;
22983;SDS011;11658;48.908;9.140;2023-03-29T11:08:56;2.17;;;1.60;;
22983;SDS011;11658;48.908;9.140;2023-03-29T11:17:12;3.20;;;1.50;;
22983;SDS011;11658;48.908;9.140;2023-03-29T11:27:54;2.97;;;1.47;;
22983;SDS011;11658;48.908;9.140;2023-03-29T11:30:58;3.07;;;1.43;;
22983;SDS011;11658;48.908;9.140;2023-03-29T11:39:10;1.67;;;1.50;;
22983;SDS011;11658;48.908;9.140;2023-03-29T11:41:48;1.87;;;1.30;;
22983;SDS011;11658;48.908;9.140;2023-03-29T11:44:23;3.33;;;1.70;;
22983;SDS011;11658;48.908;9.140;2023-03-29T11:46:58;1.70;;;1.40;;
22983;SDS011;11658;48.908;9.140;2023-03-29T11:49:32;1.90;;;1.70;;
22983;SDS011;11658;48.908;9.140;2023-03-29T11:52:19;2.30;;;1.50;;
22983;SDS011;11658;48.908;9.140;2023-03-29T11:57:25;2.43;;;1.53;;
22983;SDS011;11658;48.908;9.140;2023-03-29T11:59:59;2.60;;;1.30;;
22983;SDS011;11658;48.908;9.140;2023-03-29T12:10:35;3.63;;;1.70;;
22983;SDS011;11658;48.908;9.140;2023-03-29T12:13:06;3.40;;;1.80;;
22983;SDS011;11658;48.908;9.140;2023-03-29T12:18:26;1.57;;;1.47;;
22983;SDS011;11658;48.908;9.140;2023-03-29T12:21:00;1.57;;;1.40;;
22983;SDS011;11658;48.908;9.140;2023-03-29T12:23:29;3.00;;;2.40;;
22983;SDS011;11658;48.908;9.140;2023-03-29T12:31:26;2.07;;;1.47;;
22983;SDS011;11658;48.908;9.140;2023-03-29T12:34:15;4.47;;;1.80;;
22983;SDS011;11658;48.908;9.140;2023-03-29T12:39:32;2.37;;;1.70;;
22983;SDS011;11658;48.908;9.140;2023-03-29T12:44:48;2.83;;;1.60;;
22983;SDS011;11658;48.908;9.140;2023-03-29T12:47:21;2.27;;;1.60;;
22983;SDS011;11658;48.908;9.140;2023-03-29T12:49:53;3.10;;;1.50;;
22983;SDS011;11658;48.908;9.140;2023-03-29T12:52:30;3.20;;;1.47;;
22983;SDS011;11658;48.908;9.140;2023-03-29T12:54:59;2.40;;;1.37;;
22983;SDS011;11658;48.908;9.140;2023-03-29T12:57:41;1.50;;;1.30;;
22983;SDS011;11658;48.908;9.140;2023-03-29T13:00:32;3.77;;;1.80;;
22983;SDS011;11658;48.908;9.140;2023-03-29T13:03:05;2.03;;;1.50;;
22983;SDS011;11658;48.908;9.140;2023-03-29T13:05:59;3.33;;;1.43;;
22983;SDS011;11658;48.908;9.140;2023-03-29T13:08:41;3.00;;;1.47;;
22983;SDS011;11658;48.908;9.140;2023-03-29T13:11:22;2.47;;;1.50;;
22983;SDS011;11658;48.908;9.140;2023-03-29T13:13:51;2.70;;;1.57;;
22983;SDS011;11658;48.908;9.140;2023-03-29T13:16:18;2.97;;;1.77;;
22983;SDS011;11658;48.908;9.140;2023-03-29T13:21:33;2.37;;;1.50;;
22983;SDS011;11658;48.908;9.140;2023-03-29T13:32:31;1.73;;;1.13;;
22983;SDS011;11658;48.908;9.140;2023-03-29T13:43:09;2.20;;;1.10;;
22983;SDS011;11658;48.908;9.140;2023-03-29T13:45:42;2.00;;;1.17;;
22983;SDS011;11658;48.908;9.140;2023-03-29T13:48:24;3.30;;;1.10;;
22983;SDS011;11658;48.908;9.140;2023-03-29T13:51:01;1.80;;;1.00;;
22983;SDS011;11658;48.908;9.140;2023-03-29T13:53:45;1.70;;;1.30;;
22983;SDS011;11658;48.908;9.140;2023-03-29T13:56:38;1.63;;;1.10;;
22983;SDS011;11658;48.908;9.140;2023-03-29T13:59:24;1.93;;;1.20;;
22983;SDS011;11658;48.908;9.140;2023-03-29T14:02:16;1.77;;;1.17;;
22983;SDS011;11658;48.908;9.140;2023-03-29T14:04:46;1.80;;;1.40;;
22983;SDS011;11658;48.908;9.140;2023-03-29T14:07:14;1.53;;;0.97;;
22983;SDS011;11658;48.908;9.140;2023-03-29T14:09:44;2.30;;;1.40;;
22983;SDS011;11658;48.908;9.140;2023-03-29T14:12:15;3.30;;;2.20;;
22983;SDS011;11658;48.908;9.140;2023-03-29T14:14:43;2.33;;;1.30;;
22983;SDS011;11658;48.908;9.140;2023-03-29T14:17:15;1.57;;;1.27;;
22983;SDS011;11658;48.908;9.140;2023-03-29T14:19:44;1.50;;;1.27;;
22983;SDS011;11658;48.908;9.140;2023-03-29T14:22:15;3.63;;;1.43;;
22983;SDS011;11658;48.908;9.140;2023-03-29T14:24:47;3.33;;;1.27;;
22983;SDS011;11658;48.908;9.140;2023-03-29T14:27:17;1.20;;;1.10;;
22983;SDS011;11658;48.908;9.140;2023-03-29T14:29:44;2.03;;;1.33;;
22983;SDS011;11658;48.908;9.140;2023-03-29T14:32:15;2.47;;;1.23;;
22983;SDS011;11658;48.908;9.140;2023-03-29T14:34:42;2.17;;;0.90;;
22983;SDS011;11658;48.908;9.140;2023-03-29T14:37:12;2.60;;;1.07;;
22983;SDS011;11658;48.908;9.140;2023-03-29T14:39:41;2.40;;;1.20;;
22983;SDS011;11658;48.908;9.140;2023-03-29T14:42:14;3.30;;;1.10;;
22983;SDS011;11658;48.908;9.140;2023-03-29T14:44:47;1.77;;;1.10;;
22983;SDS011;11658;48.908;9.140;2023-03-29T14:47:15;1.70;;;1.10;;
22983;SDS011;11658;48.908;9.140;2023-03-29T14:49:50;1.40;;;1.10;;
22983;SDS011;11658;48.908;9.140;2023-03-29T14:52:18;2.60;;;1.30;;
22983;SDS011;11658;48.908;9.140;2023-03-29T14:54:46;3.40;;;1.37;;
22983;SDS011;11658;48.908;9.140;2023-03-29T14:57:15;2.70;;;1.00;;
22983;SDS011;11658;48.908;9.140;2023-03-29T14:59:43;3.27;;;1.17;;
22983;SDS011;11658;48.908;9.140;2023-03-29T15:02:21;3.07;;;1.20;;
22983;SDS011;11658;48.908;9.140;2023-03-29T15:04:53;3.53;;;1.30;;
22983;SDS011;11658;48.908;9.140;2023-03-29T15:07:23;2.10;;;1.13;;
22983;SDS011;11658;48.908;9.140;2023-03-29T15:09:51;2.53;;;1.30;;
22983;SDS011;11658;48.908;9.140;2023-03-29T15:12:17;4.37;;;1.50;;
22983;SDS011;11658;48.908;9.140;2023-03-29T15:14:43;5.40;;;1.23;;
22983;SDS011;11658;48.908;9.140;2023-03-29T15:17:22;1.60;;;1.10;;
22983;SDS011;11658;48.908;9.140;2023-03-29T15:20:03;2.80;;;1.17;;
22983;SDS011;11658;48.908;9.140;2023-03-29T15:22:51;2.37;;;1.20;;
22983;SDS011;11658;48.908;9.140;2023-03-29T15:25:19;3.37;;;1.90;;
22983;SDS011;11658;48.908;9.140;2023-03-29T15:27:50;2.13;;;1.20;;
22983;SDS011;11658;48.908;9.140;2023-03-29T15:30:20;5.00;;;1.40;;
22983;SDS011;11658;48.908;9.140;2023-03-29T15:35:56;1.43;;;0.90;;
22983;SDS011;11658;48.908;9.140;2023-03-29T15:38:24;1.70;;;1.10;;
22983;SDS011;11658;48.908;9.140;2023-03-29T15:40:50;2.93;;;1.33;;
22983;SDS011;11658;48.908;9.140;2023-03-29T15:43:16;3.50;;;1.20;;
22983;SDS011;11658;48.908;9.140;2023-03-29T15:45:43;2.67;;;0.90;;
22983;SDS011;11658;48.908;9.140;2023-03-29T15:48:25;3.40;;;1.43;;
22983;SDS011;11658;48.908;9.140;2023-03-29T15:50:52;1.23;;;1.13;;
22983;SDS011;11658;48.908;9.140;2023-03-29T15:53:18;3.73;;;2.10;;
22983;SDS011;11658;48.908;9.140;2023-03-29T15:55:56;1.37;;;1.17;;
22983;SDS011;11658;48.908;9.140;2023-03-29T15:58:25;1.53;;;1.20;;
22983;SDS011;11658;48.908;9.140;2023-03-29T16:00:55;1.87;;;1.20;;
22983;SDS011;11658;48.908;9.140;2023-03-29T16:03:26;4.30;;;1.70;;
22983;SDS011;11658;48.908;9.140;2023-03-29T16:05:52;2.27;;;1.23;;
22983;SDS011;11658;48.908;9.140;2023-03-29T16:08:21;3.50;;;1.80;;
22983;SDS011;11658;48.908;9.140;2023-03-29T16:10:47;3.73;;;2.07;;
22983;SDS011;11658;48.908;9.140;2023-03-29T16:13:13;3.50;;;2.10;;
22983;SDS011;11658;48.908;9.140;2023-03-29T16:15:40;1.37;;;1.17;;
22983;SDS011;11658;48.908;9.140;2023-03-29T16:18:06;3.63;;;1.43;;
22983;SDS011;11658;48.908;9.140;2023-03-29T16:20:32;3.53;;;1.50;;
22983;SDS011;11658;48.908;9.140;2023-03-29T16:22:58;4.67;;;1.40;;
22983;SDS011;11658;48.908;9.140;2023-03-29T16:25:23;2.83;;;1.40;;
22983;SDS011;11658;48.908;9.140;2023-03-29T16:27:49;3.47;;;1.57;;
22983;SDS011;11658;48.908;9.140;2023-03-29T16:30:17;2.90;;;1.20;;
22983;SDS011;11658;48.908;9.140;2023-03-29T16:32:43;1.53;;;1.10;;
22983;SDS011;11658;48.908;9.140;2023-03-29T16:35:20;1.80;;;1.20;;
22983;SDS011;11658;48.908;9.140;2023-03-29T16:37:52;2.10;;;1.73;;
22983;SDS011;11658;48.908;9.140;2023-03-29T16:40:18;3.07;;;1.70;;
22983;SDS011;11658;48.908;9.140;2023-03-29T16:42:45;1.97;;;1.47;;
22983;SDS011;11658;48.908;9.140;2023-03-29T16:45:11;2.83;;;1.63;;
22983;SDS011;11658;48.908;9.140;2023-03-29T16:47:38;2.43;;;1.53;;
22983;SDS011;11658;48.908;9.140;2023-03-29T16:50:05;1.40;;;1.20;;
22983;SDS011;11658;48.908;9.140;2023-03-29T16:52:32;1.80;;;1.40;;
22983;SDS011;11658;48.908;9.140;2023-03-29T16:54:57;2.67;;;1.40;;
22983;SDS011;11658;48.908;9.140;2023-03-29T16:57:23;2.73;;;1.27;;
22983;SDS011;11658;48.908;9.140;2023-03-29T16:59:50;2.83;;;1.70;;
22983;SDS011;11658;48.908;9.140;2023-03-29T17:02:16;2.17;;;1.40;;
22983;SDS011;11658;48.908;9.140;2023-03-29T17:04:41;1.63;;;1.37;;
22983;SDS011;11658;48.908;9.140;2023-03-29T17:07:07;2.77;;;1.70;;
22983;SDS011;11658;48.908;9.140;2023-03-29T17:09:32;3.27;;;1.50;;
22983;SDS011;11658;48.908;9.140;2023-03-29T17:11:58;1.93;;;1.47;;
22983;SDS011;11658;48.908;9.140;2023-03-29T17:14:24;2.63;;;1.60;;
22983;SDS011;11658;48.908;9.140;2023-03-29T17:16:51;3.67;;;1.70;;
22983;SDS011;11658;48.908;9.140;2023-03-29T17:19:17;2.20;;;1.50;;
22983;SDS011;11658;48.908;9.140;2023-03-29T17:21:42;1.90;;;1.40;;
22983;SDS011;11658;48.908;9.140;2023-03-29T17:24:08;3.73;;;1.50;;
22983;SDS011;11658;48.908;9.140;2023-03-29T17:26:34;2.57;;;1.47;;
22983;SDS011;11658;48.908;9.140;2023-03-29T17:29:01;3.93;;;2.60;;
22983;SDS011;11658;48.908;9.140;2023-03-29T17:31:28;2.23;;;1.90;;
22983;SDS011;11658;48.908;9.140;2023-03-29T17:33:53;4.60;;;2.13;;
22983;SDS011;11658;48.908;9.140;2023-03-29T17:36:19;4.40;;;2.90;;
22983;SDS011;11658;48.908;9.140;2023-03-29T17:38:48;2.90;;;1.87;;
22983;SDS011;11658;48.908;9.140;2023-03-29T17:41:14;5.90;;;2.17;;
22983;SDS011;11658;48.908;9.140;2023-03-29T17:43:40;2.70;;;2.27;;
22983;SDS011;11658;48.908;9.140;2023-03-29T17:46:11;2.30;;;2.10;;
22983;SDS011;11658;48.908;9.140;2023-03-29T17:48:37;3.17;;;2.37;;
22983;SDS011;11658;48.908;9.140;2023-03-29T17:51:03;4.73;;;3.43;;
22983;SDS011;11658;48.908;9.140;2023-03-29T17:53:29;5.63;;;5.23;;
22983;SDS011;11658;48.908;9.140;2023-03-29T17:55:55;5.13;;;3.73;;
22983;SDS011;11658;48.908;9.140;2023-03-29T17:58:24;10.27;;;9.37;;
22983;SDS011;11658;48.908;9.140;2023-03-29T18:00:49;5.93;;;4.93;;
22983;SDS011;11658;48.908;9.140;2023-03-29T18:03:15;5.90;;;4.07;;
22983;SDS011;11658;48.908;9.140;2023-03-29T18:05:41;4.00;;;2.73;;
22983;SDS011;11658;48.908;9.140;2023-03-29T18:08:07;5.67;;;2.10;;
22983;SDS011;11658;48.908;9.140;2023-03-29T18:10:33;5.60;;;2.47;;
22983;SDS011;11658;48.908;9.140;2023-03-29T18:13:00;3.13;;;2.30;;
22983;SDS011;11658;48.908;9.140;2023-03-29T18:15:26;3.73;;;2.00;;
22983;SDS011;11658;48.908;9.140;2023-03-29T18:17:51;2.97;;;2.20;;
22983;SDS011;11658;48.908;9.140;2023-03-29T18:20:17;4.80;;;2.57;;
22983;SDS011;11658;48.908;9.140;2023-03-29T18:22:44;4.50;;;2.20;;
22983;SDS011;11658;48.908;9.140;2023-03-29T18:25:10;4.53;;;2.60;;
22983;SDS011;11658;48.908;9.140;2023-03-29T18:27:36;4.77;;;2.90;;
22983;SDS011;11658;48.908;9.140;2023-03-29T18:30:03;3.47;;;2.30;;
22983;SDS011;11658;48.908;9.140;2023-03-29T18:32:30;4.00;;;2.20;;
22983;SDS011;11658;48.908;9.140;2023-03-29T18:34:56;6.57;;;3.37;;
22983;SDS011;11658;48.908;9.140;2023-03-29T18:37:22;3.60;;;2.40;;
22983;SDS011;11658;48.908;9.140;2023-03-29T18:39:47;4.40;;;2.50;;
22983;SDS011;11658;48.908;9.140;2023-03-29T18:42:13;4.87;;;2.50;;
22983;SDS011;11658;48.908;9.140;2023-03-29T18:44:39;4.73;;;3.10;;
22983;SDS011;11658;48.908;9.140;2023-03-29T18:47:05;5.07;;;2.50;;
22983;SDS011;11658;48.908;9.140;2023-03-29T18:49:31;4.13;;;2.33;;
22983;SDS011;11658;48.908;9.140;2023-03-29T18:51:57;5.53;;;2.50;;
22983;SDS011;11658;48.908;9.140;2023-03-29T18:54:22;5.43;;;2.70;;
22983;SDS011;11658;48.908;9.140;2023-03-29T18:56:48;3.83;;;2.70;;
22983;SDS011;11658;48.908;9.140;2023-03-29T18:59:14;5.17;;;2.57;;
22983;SDS011;11658;48.908;9.140;2023-03-29T19:01:41;4.30;;;2.40;;
22983;SDS011;11658;48.908;9.140;2023-03-29T19:04:06;4.97;;;2.80;;
22983;SDS011;11658;48.908;9.140;2023-03-29T19:06:32;9.83;;;3.90;;
22983;SDS011;11658;48.908;9.140;2023-03-29T19:08:57;6.20;;;3.70;;
22983;SDS011;11658;48.908;9.140;2023-03-29T19:11:26;5.07;;;2.93;;
22983;SDS011;11658;48.908;9.140;2023-03-29T19:13:52;5.73;;;2.50;;
22983;SDS011;11658;48.908;9.140;2023-03-29T19:16:17;2.70;;;2.47;;
22983;SDS011;11658;48.908;9.140;2023-03-29T19:18:43;4.73;;;2.67;;
22983;SDS011;11658;48.908;9.140;2023-03-29T19:21:09;3.60;;;2.70;;
22983;SDS011;11658;48.908;9.140;2023-03-29T19:23:34;4.57;;;2.50;;
22983;SDS011;11658;48.908;9.140;2023-03-29T19:26:01;4.27;;;3.03;;
22983;SDS011;11658;48.908;9.140;2023-03-29T19:28:29;5.60;;;2.60;;
22983;SDS011;11658;48.908;9.140;2023-03-29T19:30:56;4.50;;;2.73;;
22983;SDS011;11658;48.908;9.140;2023-03-29T19:33:23;3.77;;;2.70;;